createdAt,value
2017-10-25T00:00:01.253Z,89.23
2017-10-25T00:01:01.259Z,89.09
2017-10-25T00:02:01.213Z,88.9
2017-10-25T00:03:01.182Z,88.95
2017-10-25T00:04:01.165Z,89.04
2017-10-25T00:05:01.139Z,89.09
2017-10-25T00:06:01.118Z,88.76
2017-10-25T00:07:01.097Z,89.14
2017-10-25T00:08:01.081Z,88.66
2017-10-25T00:09:01.056Z,88.76
2017-10-25T00:10:01.033Z,88.99
2017-10-25T00:11:01.011Z,89.14
2017-10-25T00:12:00.999Z,88.99
2017-10-25T00:13:00.976Z,88.99
2017-10-25T00:14:00.943Z,89.14
2017-10-25T00:15:00.928Z,89.14
2017-10-25T00:16:00.900Z,89.04
2017-10-25T00:17:00.889Z,88.95
2017-10-25T00:18:00.858Z,89.18
2017-10-25T00:19:00.842Z,88.66
2017-10-25T00:20:00.815Z,88.7
2017-10-25T00:21:00.803Z,88.99
2017-10-25T00:22:00.775Z,88.9
2017-10-25T00:23:00.751Z,88.95
2017-10-25T00:24:00.729Z,89.23
2017-10-25T00:25:00.709Z,89.23
2017-10-25T00:26:00.705Z,89.14
2017-10-25T00:27:00.670Z,88.7
2017-10-25T00:28:00.659Z,88.85
2017-10-25T00:29:00.625Z,89.14
2017-10-25T00:30:00.604Z,88.95
2017-10-25T00:31:00.589Z,89.28
2017-10-25T00:32:00.236Z,89.28
2017-10-25T00:33:00.539Z,89.09
2017-10-25T00:34:00.520Z,89.33
2017-10-25T00:35:00.180Z,89.04
2017-10-25T00:36:00.495Z,89.14
2017-10-25T00:37:00.464Z,89.28
2017-10-25T00:38:00.431Z,89.23
2017-10-25T00:39:00.410Z,89.18
2017-10-25T00:40:00.387Z,88.95
2017-10-25T00:41:00.366Z,88.95
2017-10-25T00:42:00.354Z,89.04
2017-10-25T00:43:00.332Z,88.76
2017-10-25T00:44:00.307Z,89.04
2017-10-25T00:45:00.278Z,89.37
2017-10-25T00:46:00.278Z,88.85
2017-10-25T00:47:00.244Z,88.85
2017-10-25T00:48:00.215Z,89.28
2017-10-25T00:49:00.195Z,89.37
2017-10-25T00:50:00.170Z,88.76
2017-10-25T00:51:00.149Z,88.9
2017-10-25T00:52:00.127Z,89.23
2017-10-25T00:53:00.110Z,88.8
2017-10-25T00:54:00.091Z,88.7
2017-10-25T00:55:00.069Z,89.33
2017-10-25T00:56:00.046Z,89.33
2017-10-25T00:57:00.021Z,88.8
2017-10-25T00:57:59.992Z,89.23
2017-10-25T00:58:59.986Z,89.33
2017-10-25T00:59:59.956Z,88.66
2017-10-25T01:00:59.613Z,88.76
2017-10-25T01:01:59.919Z,88.95
2017-10-25T01:02:59.891Z,89.14
2017-10-25T01:03:59.880Z,89.43
2017-10-25T01:04:59.847Z,89.33
2017-10-25T01:05:59.820Z,89.43
2017-10-25T01:06:59.813Z,89.33
2017-10-25T01:07:59.786Z,89.04
2017-10-25T01:08:59.765Z,88.85
2017-10-25T01:09:59.743Z,88.8
2017-10-25T01:10:59.718Z,89.43
2017-10-25T01:11:59.695Z,88.76
2017-10-25T01:12:59.676Z,89.43
2017-10-25T01:13:59.656Z,89.33
2017-10-25T01:14:59.632Z,89.14
2017-10-25T01:15:59.607Z,89.04
2017-10-25T01:16:59.594Z,89.04
2017-10-25T01:17:59.575Z,89.04
2017-10-25T01:18:59.544Z,88.47
2017-10-25T01:19:59.522Z,88.56
2017-10-25T01:20:59.506Z,88.56
2017-10-25T01:21:59.488Z,88.56
2017-10-25T01:22:59.461Z,89.14
2017-10-25T01:23:59.442Z,88.66
2017-10-25T01:24:59.097Z,89.33
2017-10-25T01:25:59.396Z,89.14
2017-10-25T01:26:59.372Z,89.43
2017-10-25T01:27:59.349Z,89.14
2017-10-25T01:28:59.341Z,88.56
2017-10-25T01:29:59.303Z,88.85
2017-10-25T01:30:59.288Z,88.76
2017-10-25T01:31:59.262Z,89.43
2017-10-25T01:32:59.242Z,88.47
2017-10-25T01:33:59.232Z,89.33
2017-10-25T01:34:59.205Z,89.33
2017-10-25T01:35:59.178Z,89.43
2017-10-25T01:36:59.161Z,89.43
2017-10-25T01:37:59.139Z,88.66
2017-10-25T01:38:59.119Z,88.56
2017-10-25T01:39:59.104Z,88.66
2017-10-25T01:40:59.072Z,89.14
2017-10-25T01:41:59.057Z,88.66
2017-10-25T01:42:59.038Z,89.33
2017-10-25T01:43:59.006Z,88.66
2017-10-25T01:44:58.985Z,88.66
2017-10-25T01:45:58.968Z,88.66
2017-10-25T01:46:58.944Z,89.23
2017-10-25T01:47:58.918Z,89.23
2017-10-25T01:48:58.898Z,89.43
2017-10-25T01:49:58.879Z,89.33
2017-10-25T01:50:58.540Z,89.23
2017-10-25T01:51:58.830Z,88.85
2017-10-25T01:52:58.815Z,89.23
2017-10-25T01:53:58.472Z,89.33
2017-10-25T01:54:58.775Z,89.43
2017-10-25T01:55:58.760Z,88.85
2017-10-25T01:56:58.734Z,88.66
2017-10-25T01:57:58.708Z,89.14
2017-10-25T01:58:58.681Z,89.23
2017-10-25T01:59:58.665Z,89.33
2017-10-25T02:00:58.647Z,88.56
2017-10-25T02:01:58.621Z,88.85
2017-10-25T02:02:58.599Z,88.56
2017-10-25T02:03:58.579Z,89.23
2017-10-25T02:04:58.557Z,89.52
2017-10-25T02:05:58.538Z,88.56
2017-10-25T02:06:58.513Z,88.85
2017-10-25T02:07:58.171Z,89.62
2017-10-25T02:08:58.464Z,89.43
2017-10-25T02:09:58.449Z,89.33
2017-10-25T02:10:58.430Z,88.76
2017-10-25T02:11:58.414Z,89.33
2017-10-25T02:12:58.383Z,89.33
2017-10-25T02:13:58.364Z,89.33
2017-10-25T02:14:58.339Z,88.66
2017-10-25T02:15:58.318Z,88.66
2017-10-25T02:16:57.973Z,89.52
2017-10-25T02:17:58.277Z,89.33
2017-10-25T02:18:58.254Z,89.43
2017-10-25T02:19:58.236Z,89.43
2017-10-25T02:20:58.206Z,89.52
2017-10-25T02:21:58.186Z,89.62
2017-10-25T02:22:58.164Z,89.62
2017-10-25T02:23:58.140Z,89.52
2017-10-25T02:24:58.125Z,88.85
2017-10-25T02:25:58.103Z,89.52
2017-10-25T02:26:58.078Z,89.52
2017-10-25T02:27:58.054Z,89.52
2017-10-25T02:28:58.038Z,89.52
2017-10-25T02:29:58.014Z,89.72
2017-10-25T02:30:58.000Z,89.62
2017-10-25T02:31:57.972Z,89.52
2017-10-25T02:32:57.955Z,89.23
2017-10-25T02:33:57.953Z,89.33
2017-10-25T02:34:57.906Z,89.33
2017-10-25T02:35:57.890Z,89.72
2017-10-25T02:36:57.867Z,89.14
2017-10-25T02:37:57.844Z,89.14
2017-10-25T02:38:57.822Z,89.62
2017-10-25T02:39:57.801Z,89.62
2017-10-25T02:40:57.776Z,89.33
2017-10-25T02:41:57.754Z,89.62
2017-10-25T02:42:57.736Z,89.14
2017-10-25T02:43:57.708Z,89.52
2017-10-25T02:44:57.693Z,89.33
2017-10-25T02:45:57.675Z,89.33
2017-10-25T02:46:57.649Z,89.52
2017-10-25T02:47:57.631Z,89.72
2017-10-25T02:48:57.603Z,89.23
2017-10-25T02:49:57.595Z,89.33
2017-10-25T02:50:57.568Z,89.33
2017-10-25T02:51:57.539Z,89.33
2017-10-25T02:52:57.515Z,89.33
2017-10-25T02:53:57.510Z,89.62
2017-10-25T02:54:57.474Z,89.43
2017-10-25T02:55:57.451Z,89.33
2017-10-25T02:56:57.446Z,89.33
2017-10-25T02:57:57.422Z,89.43
2017-10-25T02:58:57.391Z,89.23
2017-10-25T02:59:57.370Z,89.72
2017-10-25T03:00:57.357Z,88.66
2017-10-25T03:01:57.329Z,89.62
2017-10-25T03:02:57.303Z,89.23
2017-10-25T03:03:57.280Z,89.52
2017-10-25T03:04:57.258Z,89.33
2017-10-25T03:05:57.240Z,89.23
2017-10-25T03:06:57.217Z,89.62
2017-10-25T03:07:57.200Z,89.23
2017-10-25T03:08:57.178Z,88.66
2017-10-25T03:09:57.158Z,89.62
2017-10-25T03:10:57.131Z,88.47
2017-10-25T03:11:57.112Z,89.62
2017-10-25T03:12:57.087Z,89.52
2017-10-25T03:13:56.749Z,89.43
2017-10-25T03:14:57.048Z,88.76
2017-10-25T03:15:57.025Z,88.95
2017-10-25T03:16:57.005Z,89.43
2017-10-25T03:17:56.978Z,89.62
2017-10-25T03:18:56.959Z,89.52
2017-10-25T03:19:56.934Z,89.23
2017-10-25T03:20:56.912Z,88.76
2017-10-25T03:21:56.920Z,89.14
2017-10-25T03:22:56.870Z,89.23
2017-10-25T03:23:56.852Z,89.14
2017-10-25T03:24:56.827Z,89.23
2017-10-25T03:25:56.809Z,88.95
2017-10-25T03:26:56.785Z,89.23
2017-10-25T03:27:56.762Z,89.14
2017-10-25T03:28:56.740Z,89.14
2017-10-25T03:29:56.715Z,89.04
2017-10-25T03:30:56.707Z,89.04
2017-10-25T03:31:56.676Z,89.23
2017-10-25T03:32:56.655Z,89.14
2017-10-25T03:33:56.633Z,89.04
2017-10-25T03:34:56.613Z,89.04
2017-10-25T03:35:56.602Z,89.14
2017-10-25T03:36:56.565Z,89.04
2017-10-25T03:37:56.555Z,89.23
2017-10-25T03:38:56.525Z,88.56
2017-10-25T03:39:56.507Z,89.04
2017-10-25T03:40:56.485Z,89.04
2017-10-25T03:41:56.139Z,88.95
2017-10-25T03:42:56.440Z,89.14
2017-10-25T03:43:56.418Z,89.43
2017-10-25T03:44:56.396Z,89.14
2017-10-25T03:45:56.376Z,89.04
2017-10-25T03:46:56.353Z,89.43
2017-10-25T03:47:56.328Z,89.33
2017-10-25T03:48:56.310Z,88.66
2017-10-25T03:49:56.283Z,89.33
2017-10-25T03:50:56.271Z,89.14
2017-10-25T03:51:56.246Z,89.33
2017-10-25T03:52:56.219Z,89.23
2017-10-25T03:53:56.222Z,88.76
2017-10-25T03:54:56.181Z,88.95
2017-10-25T03:55:56.161Z,88.66
2017-10-25T03:56:56.137Z,89.04
2017-10-25T03:57:56.116Z,89.43
2017-10-25T03:58:56.096Z,89.33
2017-10-25T03:59:56.070Z,88.85
2017-10-25T04:00:56.052Z,89.14
2017-10-25T04:01:56.033Z,88.95
2017-10-25T04:02:56.009Z,88.85
2017-10-25T04:03:55.988Z,89.14
2017-10-25T04:04:55.969Z,88.95
2017-10-25T04:05:55.942Z,88.95
2017-10-25T04:06:55.919Z,88.76
2017-10-25T04:07:55.898Z,89.33
2017-10-25T04:08:55.878Z,89.04
2017-10-25T04:09:55.861Z,88.95
2017-10-25T04:10:55.840Z,88.95
2017-10-25T04:11:55.810Z,89.28
2017-10-25T04:12:55.788Z,88.95
2017-10-25T04:13:55.773Z,88.76
2017-10-25T04:14:55.757Z,88.95
2017-10-25T04:15:55.736Z,88.8
2017-10-25T04:16:55.704Z,89.28
2017-10-25T04:17:55.684Z,88.99
2017-10-25T04:18:55.342Z,88.95
2017-10-25T04:19:55.646Z,88.95
2017-10-25T04:20:55.620Z,88.76
2017-10-25T04:21:55.594Z,89.23
2017-10-25T04:22:55.578Z,88.99
2017-10-25T04:23:55.554Z,88.99
2017-10-25T04:24:55.539Z,88.66
2017-10-25T04:25:55.511Z,88.95
2017-10-25T04:26:55.490Z,88.76
2017-10-25T04:27:55.471Z,88.85
2017-10-25T04:28:55.455Z,89.14
2017-10-25T04:29:55.425Z,89.14
2017-10-25T04:30:55.407Z,88.95
2017-10-25T04:31:55.386Z,88.95
2017-10-25T04:32:55.362Z,88.76
2017-10-25T04:33:55.341Z,88.8
2017-10-25T04:34:55.315Z,89.14
2017-10-25T04:35:55.295Z,88.66
2017-10-25T04:36:55.279Z,88.95
2017-10-25T04:37:55.659Z,88.66
2017-10-25T04:38:55.233Z,89.04
2017-10-25T04:39:55.206Z,88.85
2017-10-25T04:40:55.185Z,88.95
2017-10-25T04:41:55.164Z,89.04
2017-10-25T04:42:55.145Z,88.95
2017-10-25T04:43:54.806Z,88.9
2017-10-25T04:44:55.103Z,88.95
2017-10-25T04:45:55.094Z,89.04
2017-10-25T04:46:55.078Z,88.7
2017-10-25T04:47:55.042Z,88.95
2017-10-25T04:48:55.018Z,88.7
2017-10-25T04:49:54.994Z,88.56
2017-10-25T04:50:54.978Z,88.95
2017-10-25T04:51:54.966Z,88.95
2017-10-25T04:52:54.929Z,89.14
2017-10-25T04:53:54.908Z,88.56
2017-10-25T04:54:54.886Z,88.95
2017-10-25T04:55:54.861Z,88.99
2017-10-25T04:56:54.848Z,89.04
2017-10-25T04:57:54.818Z,88.99
2017-10-25T04:58:54.810Z,89.09
2017-10-25T04:59:54.783Z,88.8
2017-10-25T05:00:54.757Z,88.85
2017-10-25T05:01:54.733Z,88.95
2017-10-25T05:02:54.719Z,88.95
2017-10-25T05:03:54.721Z,88.66
2017-10-25T05:04:54.671Z,88.9
2017-10-25T05:05:54.656Z,88.47
2017-10-25T05:06:54.631Z,89.04
2017-10-25T05:07:54.614Z,88.9
2017-10-25T05:08:54.583Z,89.04
2017-10-25T05:09:54.248Z,88.95
2017-10-25T05:10:54.227Z,89.04
2017-10-25T05:11:54.519Z,88.85
2017-10-25T05:12:54.517Z,88.7
2017-10-25T05:13:54.475Z,88.99
2017-10-25T05:14:54.458Z,88.99
2017-10-25T05:15:54.433Z,89.14
2017-10-25T05:16:54.431Z,89.23
2017-10-25T05:17:54.395Z,88.95
2017-10-25T05:18:54.369Z,88.95
2017-10-25T05:19:54.348Z,88.95
2017-10-25T05:20:54.324Z,88.7
2017-10-25T05:21:54.306Z,88.76
2017-10-25T05:22:54.291Z,89.04
2017-10-25T05:23:54.265Z,89.33
2017-10-25T05:24:54.250Z,88.95
2017-10-25T05:25:54.217Z,88.8
2017-10-25T05:26:54.199Z,88.85
2017-10-25T05:27:54.171Z,88.85
2017-10-25T05:28:54.154Z,88.85
2017-10-25T05:29:54.136Z,89.14
2017-10-25T05:30:54.112Z,89.33
2017-10-25T05:31:54.088Z,89.04
2017-10-25T05:32:54.070Z,88.76
2017-10-25T05:33:54.044Z,89.43
2017-10-25T05:34:54.022Z,88.85
2017-10-25T05:35:54.002Z,89.43
2017-10-25T05:36:53.982Z,89.33
2017-10-25T05:37:53.961Z,89.43
2017-10-25T05:38:53.940Z,89.33
2017-10-25T05:39:53.915Z,88.76
2017-10-25T05:40:53.899Z,88.95
2017-10-25T05:41:53.876Z,88.85
2017-10-25T05:42:53.875Z,89.14
2017-10-25T05:43:53.839Z,88.85
2017-10-25T05:44:53.812Z,89.04
2017-10-25T05:45:53.789Z,89.04
2017-10-25T05:46:53.773Z,89.14
2017-10-25T05:47:53.745Z,88.85
2017-10-25T05:48:53.729Z,89.23
2017-10-25T05:49:53.708Z,89.14
2017-10-25T05:50:53.677Z,89.14
2017-10-25T05:51:53.686Z,89.14
2017-10-25T05:52:53.635Z,89.52
2017-10-25T05:53:53.613Z,88.66
2017-10-25T05:54:53.594Z,89.23
2017-10-25T05:55:53.574Z,89.23
2017-10-25T05:56:53.547Z,89.14
2017-10-25T05:57:53.530Z,89.33
2017-10-25T05:58:53.507Z,89.33
2017-10-25T05:59:53.483Z,89.43
2017-10-25T06:00:53.460Z,89.33
2017-10-25T06:01:53.446Z,89.23
2017-10-25T06:02:53.417Z,89.43
2017-10-25T06:03:53.076Z,89.23
2017-10-25T06:04:53.375Z,89.43
2017-10-25T06:05:53.350Z,89.52
2017-10-25T06:06:53.333Z,89.04
2017-10-25T06:07:53.319Z,89.81
2017-10-25T06:08:53.299Z,89.33
2017-10-25T06:09:53.267Z,89.81
2017-10-25T06:10:53.248Z,89.33
2017-10-25T06:11:53.224Z,89.43
2017-10-25T06:12:53.202Z,89.52
2017-10-25T06:13:53.181Z,89.52
2017-10-25T06:14:53.159Z,89.43
2017-10-25T06:15:53.140Z,89.23
2017-10-25T06:16:53.118Z,89.52
2017-10-25T06:17:53.099Z,89.33
2017-10-25T06:18:53.093Z,89.62
2017-10-25T06:19:53.050Z,89.62
2017-10-25T06:20:53.033Z,89.62
2017-10-25T06:21:53.019Z,89.43
2017-10-25T06:22:52.984Z,89.33
2017-10-25T06:23:52.651Z,89.33
2017-10-25T06:24:52.944Z,89.33
2017-10-25T06:25:52.919Z,89.33
2017-10-25T06:26:52.902Z,89.33
2017-10-25T06:27:52.879Z,89.33
2017-10-25T06:28:52.855Z,89.72
2017-10-25T06:29:52.831Z,89.52
2017-10-25T06:30:52.812Z,89.14
2017-10-25T06:31:52.808Z,89.81
2017-10-25T06:32:52.776Z,89.23
2017-10-25T06:33:52.756Z,89.43
2017-10-25T06:34:52.724Z,89.33
2017-10-25T06:35:52.705Z,89.62
2017-10-25T06:36:52.682Z,89.62
2017-10-25T06:37:52.655Z,89.72
2017-10-25T06:38:52.646Z,89.52
2017-10-25T06:39:52.623Z,89.62
2017-10-25T06:40:52.593Z,89.62
2017-10-25T06:41:52.576Z,89.81
2017-10-25T06:42:52.551Z,89.9
2017-10-25T06:43:52.530Z,89.62
2017-10-25T06:44:52.523Z,89.9
2017-10-25T06:45:52.486Z,89.9
2017-10-25T06:46:52.468Z,90.29
2017-10-25T06:47:52.451Z,89.9
2017-10-25T06:48:52.427Z,90.19
2017-10-25T06:49:52.403Z,89.81
2017-10-25T06:50:52.375Z,89.9
2017-10-25T06:51:52.354Z,90.09
2017-10-25T06:52:52.352Z,90.14
2017-10-25T06:53:52.312Z,89.9
2017-10-25T06:54:52.299Z,89.81
2017-10-25T06:55:52.274Z,89.81
2017-10-25T06:56:52.248Z,89.66
2017-10-25T06:57:52.227Z,89.86
2017-10-25T06:58:52.204Z,89.9
2017-10-25T06:59:52.187Z,90.48
2017-10-25T07:00:52.798Z,90.43
2017-10-25T07:01:52.160Z,90.29
2017-10-25T07:02:52.128Z,90.39
2017-10-25T07:03:52.098Z,90.39
2017-10-25T07:04:52.100Z,90.39
2017-10-25T07:05:52.053Z,90.19
2017-10-25T07:06:52.029Z,90.62
2017-10-25T07:07:52.003Z,90.96
2017-10-25T07:08:51.987Z,90.33
2017-10-25T07:09:51.979Z,90.43
2017-10-25T07:10:51.950Z,90.62
2017-10-25T07:11:51.601Z,90.53
2017-10-25T07:12:51.906Z,90.33
2017-10-25T07:13:51.881Z,90.43
2017-10-25T07:14:51.863Z,90.91
2017-10-25T07:15:51.835Z,90.23
2017-10-25T07:16:51.828Z,90.33
2017-10-25T07:17:51.793Z,90.43
2017-10-25T07:18:51.767Z,90.72
2017-10-25T07:19:51.750Z,90.81
2017-10-25T07:20:51.734Z,90.81
2017-10-25T07:21:51.713Z,90.72
2017-10-25T07:22:51.689Z,90.81
2017-10-25T07:23:51.665Z,90.81
2017-10-25T07:24:51.650Z,90.81
2017-10-25T07:25:51.627Z,90.81
2017-10-25T07:26:51.613Z,90.53
2017-10-25T07:27:51.583Z,90.81
2017-10-25T07:28:51.562Z,91.39
2017-10-25T07:29:51.538Z,90.72
2017-10-25T07:30:51.519Z,91
2017-10-25T07:31:51.501Z,91.1
2017-10-25T07:32:51.476Z,90.95
2017-10-25T07:33:51.455Z,91.05
2017-10-25T07:34:51.432Z,91.19
2017-10-25T07:35:51.410Z,91.63
2017-10-25T07:36:51.392Z,91.43
2017-10-25T07:37:51.372Z,91.63
2017-10-25T07:38:51.350Z,91.24
2017-10-25T07:39:51.329Z,91.24
2017-10-25T07:40:51.310Z,91.24
2017-10-25T07:41:51.287Z,91.63
2017-10-25T07:42:51.264Z,91.19
2017-10-25T07:43:51.247Z,91.86
2017-10-25T07:44:51.221Z,91.86
2017-10-25T07:45:50.877Z,91.86
2017-10-25T07:46:51.178Z,91.67
2017-10-25T07:47:51.159Z,92.05
2017-10-25T07:48:51.138Z,91.57
2017-10-25T07:49:51.137Z,91.67
2017-10-25T07:50:51.099Z,91.48
2017-10-25T07:51:51.077Z,91.72
2017-10-25T07:52:51.054Z,92.19
2017-10-25T07:53:51.033Z,92.29
2017-10-25T07:54:51.021Z,91.72
2017-10-25T07:55:50.995Z,92.48
2017-10-25T07:56:50.984Z,91.76
2017-10-25T07:57:50.958Z,92.05
2017-10-25T07:58:50.947Z,92
2017-10-25T07:59:50.916Z,91.42
2017-10-25T08:00:50.891Z,91.71
2017-10-25T08:01:50.873Z,91.75
2017-10-25T08:02:50.852Z,92.43
2017-10-25T08:03:50.830Z,92.24
2017-10-25T08:04:50.501Z,91.56
2017-10-25T08:05:50.794Z,91.66
2017-10-25T08:06:50.453Z,91.99
2017-10-25T08:07:50.750Z,92.29
2017-10-25T08:08:50.735Z,91.32
2017-10-25T08:09:50.722Z,91.75
2017-10-25T08:10:50.695Z,91.32
2017-10-25T08:11:50.674Z,91.22
2017-10-25T08:12:50.655Z,91.71
2017-10-25T08:13:50.638Z,91.13
2017-10-25T08:14:50.618Z,90.98
2017-10-25T08:15:50.592Z,91.08
2017-10-25T08:16:50.589Z,91.36
2017-10-25T08:17:50.559Z,90.79
2017-10-25T08:18:50.544Z,90.89
2017-10-25T08:19:50.521Z,90.94
2017-10-25T08:20:50.502Z,91.22
2017-10-25T08:21:50.477Z,90.84
2017-10-25T08:22:50.473Z,91.22
2017-10-25T08:23:50.442Z,91.42
2017-10-25T08:24:50.420Z,90.84
2017-10-25T08:25:50.416Z,90.94
2017-10-25T08:26:50.389Z,91.22
2017-10-25T08:27:50.363Z,90.55
2017-10-25T08:28:50.340Z,90.94
2017-10-25T08:29:50.328Z,90.36
2017-10-25T08:30:50.303Z,90.45
2017-10-25T08:31:50.302Z,90.41
2017-10-25T08:32:50.276Z,90.84
2017-10-25T08:33:50.251Z,90.55
2017-10-25T08:34:50.296Z,90.55
2017-10-25T08:35:50.224Z,90.26
2017-10-25T08:36:50.204Z,90.6
2017-10-25T08:37:50.243Z,90.6
2017-10-25T08:38:50.154Z,90.31
2017-10-25T08:39:50.185Z,90.12
2017-10-25T08:40:50.153Z,90.6
2017-10-25T08:41:50.138Z,90.8
2017-10-25T08:42:50.085Z,90.22
2017-10-25T08:43:50.062Z,90.66
2017-10-25T08:44:50.036Z,90.84
2017-10-25T08:45:50.021Z,91.04
2017-10-25T08:46:50.005Z,91.04
2017-10-25T08:47:49.985Z,90.7
2017-10-25T08:48:49.959Z,91.19
2017-10-25T08:49:49.951Z,90.8
2017-10-25T08:50:49.917Z,91.19
2017-10-25T08:51:49.915Z,90.9
2017-10-25T08:52:49.882Z,90.75
2017-10-25T08:53:49.860Z,90.7
2017-10-25T08:54:49.840Z,90.75
2017-10-25T08:55:49.821Z,91.24
2017-10-25T08:56:49.804Z,91.42
2017-10-25T08:57:49.780Z,90.56
2017-10-25T08:58:49.761Z,91.33
2017-10-25T08:59:49.743Z,91.14
2017-10-25T09:00:49.723Z,91.05
2017-10-25T09:01:49.704Z,91.38
2017-10-25T09:02:49.690Z,91.09
2017-10-25T09:03:49.659Z,90.8
2017-10-25T09:04:49.642Z,90.99
2017-10-25T09:05:49.623Z,90.99
2017-10-25T09:06:49.597Z,90.99
2017-10-25T09:07:49.258Z,91.19
2017-10-25T09:08:49.557Z,91.19
2017-10-25T09:09:49.540Z,91.09
2017-10-25T09:10:49.525Z,90.99
2017-10-25T09:11:49.511Z,90.99
2017-10-25T09:12:49.488Z,91.09
2017-10-25T09:13:49.457Z,90.99
2017-10-25T09:14:49.436Z,91.09
2017-10-25T09:15:49.428Z,90.9
2017-10-25T09:16:49.403Z,90.9
2017-10-25T09:17:49.380Z,90.99
2017-10-25T09:18:49.358Z,90.9
2017-10-25T09:19:49.335Z,90.7
2017-10-25T09:20:49.319Z,90.7
2017-10-25T09:21:49.298Z,90.8
2017-10-25T09:22:49.274Z,90.94
2017-10-25T09:23:49.269Z,90.84
2017-10-25T09:24:49.244Z,91.23
2017-10-25T09:25:49.219Z,91.13
2017-10-25T09:26:49.201Z,90.84
2017-10-25T09:27:49.180Z,91.33
2017-10-25T09:28:49.165Z,91.13
2017-10-25T09:29:49.153Z,90.56
2017-10-25T09:30:49.118Z,90.37
2017-10-25T09:31:49.108Z,90.37
2017-10-25T09:32:49.086Z,91.33
2017-10-25T09:33:49.062Z,90.66
2017-10-25T09:34:49.037Z,90.37
2017-10-25T09:35:49.018Z,90.27
2017-10-25T09:36:49.001Z,90.46
2017-10-25T09:37:48.982Z,90.46
2017-10-25T09:38:48.959Z,90.27
2017-10-25T09:39:48.941Z,90.56
2017-10-25T09:40:48.918Z,90.03
2017-10-25T09:41:48.901Z,90.32
2017-10-25T09:42:48.878Z,90.8
2017-10-25T09:43:48.867Z,90.13
2017-10-25T09:44:48.846Z,90.42
2017-10-25T09:45:48.818Z,91.38
2017-10-25T09:46:48.795Z,91.57
2017-10-25T09:47:48.777Z,90.52
2017-10-25T09:48:48.761Z,91.09
2017-10-25T09:49:48.739Z,90.99
2017-10-25T09:50:48.716Z,90.95
2017-10-25T09:51:48.703Z,91.05
2017-10-25T09:52:48.677Z,90.85
2017-10-25T09:53:48.653Z,90.66
2017-10-25T09:54:48.635Z,91.14
2017-10-25T09:55:48.616Z,91.05
2017-10-25T09:56:48.598Z,91
2017-10-25T09:57:48.573Z,90.9
2017-10-25T09:58:48.553Z,90.61
2017-10-25T09:59:48.534Z,91.09
2017-10-25T10:00:48.514Z,91
2017-10-25T10:01:48.491Z,91
2017-10-25T10:02:48.470Z,90.9
2017-10-25T10:03:48.459Z,90.81
2017-10-25T10:04:48.436Z,90.9
2017-10-25T10:05:48.415Z,90.81
2017-10-25T10:06:48.396Z,91.19
2017-10-25T10:07:48.373Z,90.71
2017-10-25T10:08:48.347Z,91.09
2017-10-25T10:09:48.328Z,90.71
2017-10-25T10:10:48.318Z,90.52
2017-10-25T10:11:48.289Z,90.52
2017-10-25T10:12:48.266Z,91
2017-10-25T10:13:48.245Z,91
2017-10-25T10:14:48.227Z,91
2017-10-25T10:15:48.205Z,90.52
2017-10-25T10:16:48.189Z,90.61
2017-10-25T10:17:48.166Z,91.38
2017-10-25T10:18:48.144Z,91.38
2017-10-25T10:19:48.123Z,91.38
2017-10-25T10:20:48.100Z,91.09
2017-10-25T10:21:48.086Z,90.71
2017-10-25T10:22:48.063Z,90.71
2017-10-25T10:23:48.033Z,91.19
2017-10-25T10:24:48.020Z,91.28
2017-10-25T10:25:48.017Z,91.28
2017-10-25T10:26:47.978Z,91.09
2017-10-25T10:27:47.955Z,90.56
2017-10-25T10:28:47.616Z,91.33
2017-10-25T10:29:47.913Z,90.85
2017-10-25T10:30:47.892Z,91.14
2017-10-25T10:31:47.874Z,91.05
2017-10-25T10:32:47.853Z,90.95
2017-10-25T10:33:47.828Z,91.14
2017-10-25T10:34:47.809Z,91.09
2017-10-25T10:35:47.792Z,90.99
2017-10-25T10:36:47.769Z,90.8
2017-10-25T10:37:47.752Z,90.99
2017-10-25T10:38:47.730Z,91.19
2017-10-25T10:39:47.713Z,91.14
2017-10-25T10:40:47.695Z,90.7
2017-10-25T10:41:47.672Z,90.99
2017-10-25T10:42:47.650Z,91.19
2017-10-25T10:43:47.633Z,91.09
2017-10-25T10:44:47.606Z,90.8
2017-10-25T10:45:47.587Z,91.28
2017-10-25T10:46:47.574Z,90.95
2017-10-25T10:47:47.550Z,91.24
2017-10-25T10:48:47.524Z,91.09
2017-10-25T10:49:47.508Z,91.09
2017-10-25T10:50:47.483Z,91.28
2017-10-25T10:51:47.475Z,91.38
2017-10-25T10:52:47.447Z,91.14
2017-10-25T10:53:47.445Z,90.99
2017-10-25T10:54:47.409Z,90.75
2017-10-25T10:55:47.386Z,91.14
2017-10-25T10:56:47.366Z,91.24
2017-10-25T10:57:47.340Z,91.14
2017-10-25T10:58:47.009Z,91.14
2017-10-25T10:59:47.332Z,90.85
2017-10-25T11:00:46.966Z,91.14
2017-10-25T11:01:47.267Z,90.95
2017-10-25T11:02:47.245Z,90.85
2017-10-25T11:03:47.221Z,90.81
2017-10-25T11:04:47.198Z,91
2017-10-25T11:05:46.867Z,90.95
2017-10-25T11:06:47.156Z,90.81
2017-10-25T11:07:47.148Z,91.09
2017-10-25T11:08:47.116Z,91.09
2017-10-25T11:09:47.104Z,91
2017-10-25T11:10:46.761Z,90.9
2017-10-25T11:11:47.058Z,90.9
2017-10-25T11:12:47.031Z,91.38
2017-10-25T11:13:46.707Z,91.38
2017-10-25T11:14:46.998Z,90.71
2017-10-25T11:15:46.976Z,90.61
2017-10-25T11:16:46.951Z,90.52
2017-10-25T11:17:46.932Z,90.52
2017-10-25T11:18:46.913Z,91
2017-10-25T11:19:46.885Z,91
2017-10-25T11:20:46.552Z,90.9
2017-10-25T11:21:46.848Z,90.9
2017-10-25T11:22:46.850Z,91.24
2017-10-25T11:23:46.808Z,91
2017-10-25T11:24:46.788Z,91.34
2017-10-25T11:25:46.775Z,90.86
2017-10-25T11:26:46.742Z,90.86
2017-10-25T11:27:46.724Z,91.24
2017-10-25T11:28:47.049Z,91.28
2017-10-25T11:29:46.682Z,90.86
2017-10-25T11:30:46.660Z,90.86
2017-10-25T11:31:46.638Z,90.86
2017-10-25T11:32:46.636Z,90.86
2017-10-25T11:33:46.280Z,90.76
2017-10-25T11:34:46.580Z,90.67
2017-10-25T11:35:46.554Z,90.86
2017-10-25T11:36:46.617Z,91.09
2017-10-25T11:37:46.519Z,90.9
2017-10-25T11:38:46.522Z,90.61
2017-10-25T11:39:46.489Z,91.09
2017-10-25T11:40:46.443Z,90.71
2017-10-25T11:41:46.426Z,91.09
2017-10-25T11:42:46.412Z,90.71
2017-10-25T11:43:46.073Z,91.09
2017-10-25T11:44:46.379Z,91
2017-10-25T11:45:46.042Z,90.9
2017-10-25T11:46:46.337Z,90.81
2017-10-25T11:47:46.353Z,91
2017-10-25T11:48:46.298Z,90.71
2017-10-25T11:49:46.295Z,90.9
2017-10-25T11:50:45.924Z,91.19
2017-10-25T11:51:46.227Z,91.09
2017-10-25T11:52:46.207Z,90.81
2017-10-25T11:53:46.186Z,90.9
2017-10-25T11:54:46.173Z,90.71
2017-10-25T11:55:46.147Z,90.9
2017-10-25T11:56:46.148Z,90.61
2017-10-25T11:57:46.112Z,90.61
2017-10-25T11:58:46.147Z,90.81
2017-10-25T11:59:46.089Z,90.42
2017-10-25T12:00:46.072Z,90.42
2017-10-25T12:01:46.029Z,90.33
2017-10-25T12:02:46.024Z,90.76
2017-10-25T12:03:46.003Z,91.05
2017-10-25T12:04:45.968Z,90.76
2017-10-25T12:05:45.944Z,91.24
2017-10-25T12:06:45.909Z,91.14
2017-10-25T12:07:45.887Z,90.86
2017-10-25T12:08:45.920Z,90.86
2017-10-25T12:09:45.851Z,90.95
2017-10-25T12:10:45.832Z,90.76
2017-10-25T12:11:45.562Z,90.95
2017-10-25T12:12:45.799Z,90.95
2017-10-25T12:13:45.795Z,91.14
2017-10-25T12:14:45.752Z,90.76
2017-10-25T12:15:45.767Z,90.86
2017-10-25T12:16:45.708Z,90.86
2017-10-25T12:17:45.683Z,90.86
2017-10-25T12:18:45.663Z,90.86
2017-10-25T12:19:45.733Z,90.86
2017-10-25T12:20:45.621Z,90.86
2017-10-25T12:21:45.609Z,90.76
2017-10-25T12:22:45.596Z,90.86
2017-10-25T12:23:45.578Z,90.86
2017-10-25T12:24:45.545Z,90.67
2017-10-25T12:25:45.521Z,90.67
2017-10-25T12:26:45.500Z,90.76
2017-10-25T12:27:45.511Z,90.47
2017-10-25T12:28:45.479Z,90.57
2017-10-25T12:29:45.121Z,90.28
2017-10-25T12:30:45.420Z,90.38
2017-10-25T12:31:45.398Z,90.86
2017-10-25T12:32:45.369Z,90.47
2017-10-25T12:33:45.360Z,90.38
2017-10-25T12:34:45.343Z,90.38
2017-10-25T12:35:45.306Z,90.47
2017-10-25T12:36:45.290Z,90.38
2017-10-25T12:37:45.263Z,90.57
2017-10-25T12:38:45.254Z,90.47
2017-10-25T12:39:45.223Z,90.47
2017-10-25T12:40:45.205Z,90.57
2017-10-25T12:41:45.182Z,90.47
2017-10-25T12:42:45.164Z,91.24
2017-10-25T12:43:45.142Z,90.86
2017-10-25T12:44:45.120Z,90.86
2017-10-25T12:45:45.117Z,91.24
2017-10-25T12:46:44.762Z,91.14
2017-10-25T12:47:45.057Z,91.24
2017-10-25T12:48:45.036Z,91.43
2017-10-25T12:49:45.010Z,91.14
2017-10-25T12:50:44.999Z,91.24
2017-10-25T12:51:44.978Z,90.86
2017-10-25T12:52:44.948Z,91.14
2017-10-25T12:53:44.932Z,91.14
2017-10-25T12:54:44.906Z,91.43
2017-10-25T12:55:44.887Z,91.14